createdAt,value
2022-12-05T00:01:16.487Z,44.07
2022-12-05T00:03:43.399Z,46.03
2022-12-05T00:06:10.336Z,38.60
2022-12-05T00:08:37.201Z,39.93
2022-12-05T00:11:04.178Z,39.97
2022-12-05T00:13:31.150Z,44.37
2022-12-05T00:15:57.940Z,38.30
2022-12-05T00:18:24.837Z,46.00
2022-12-05T00:20:51.629Z,39.60
2022-12-05T00:23:18.384Z,46.20
2022-12-05T00:25:45.162Z,38.80
2022-12-05T00:28:15.053Z,37.90
2022-12-05T00:30:41.865Z,43.87
2022-12-05T00:33:08.692Z,41.83
2022-12-05T00:35:35.521Z,41.87
2022-12-05T00:38:02.385Z,44.80
2022-12-05T00:40:29.152Z,42.50
2022-12-05T00:42:55.945Z,42.87
2022-12-05T00:45:22.742Z,40.93
2022-12-05T00:47:49.547Z,41.53
2022-12-05T00:50:16.344Z,39.80
2022-12-05T00:52:43.168Z,35.57
2022-12-05T00:55:10.310Z,40.30
2022-12-05T00:57:37.096Z,37.73
2022-12-05T01:00:06.130Z,38.90
2022-12-05T01:02:32.876Z,42.63
2022-12-05T01:04:59.653Z,42.80
2022-12-05T01:07:26.431Z,36.60
2022-12-05T01:09:53.243Z,37.33
2022-12-05T01:12:19.994Z,35.10
2022-12-05T01:14:46.804Z,39.63
2022-12-05T01:17:13.654Z,35.57
2022-12-05T01:19:40.516Z,40.47
2022-12-05T01:22:07.238Z,40.87
2022-12-05T01:24:34.020Z,35.43
2022-12-05T01:27:00.952Z,42.80
2022-12-05T01:29:27.817Z,37.83
2022-12-05T01:31:55.296Z,40.33
2022-12-05T01:34:22.791Z,37.27
2022-12-05T01:36:49.731Z,38.37
2022-12-05T01:39:16.935Z,41.77
2022-12-05T01:41:46.772Z,36.80
2022-12-05T01:44:13.520Z,34.43
2022-12-05T01:46:45.780Z,38.57
2022-12-05T01:49:16.262Z,39.23
2022-12-05T01:51:52.928Z,35.50
2022-12-05T01:54:22.570Z,39.70
2022-12-05T01:56:53.849Z,40.70
2022-12-05T01:59:22.802Z,37.53
2022-12-05T02:01:49.958Z,39.17
2022-12-05T02:04:17.517Z,37.17
2022-12-05T02:06:44.542Z,38.97
2022-12-05T02:09:11.460Z,33.80
2022-12-05T02:12:05.868Z,43.27
2022-12-05T02:15:05.758Z,36.40
2022-12-05T02:17:35.321Z,42.67
2022-12-05T02:20:43.354Z,36.73
2022-12-05T02:23:22.249Z,38.00
2022-12-05T02:26:28.348Z,37.27
2022-12-05T02:29:25.997Z,38.73
2022-12-05T02:32:10.332Z,43.80
2022-12-05T02:34:42.827Z,41.80
2022-12-05T02:37:11.806Z,42.00
2022-12-05T02:39:44.869Z,37.57
2022-12-05T02:42:47.020Z,37.63
2022-12-05T02:45:16.963Z,40.40
2022-12-05T02:47:48.437Z,39.20
2022-12-05T02:50:20.740Z,38.93
2022-12-05T02:52:50.494Z,42.43
2022-12-05T02:55:18.768Z,37.50
2022-12-05T02:57:50.541Z,36.70
2022-12-05T03:00:17.712Z,42.83
2022-12-05T03:02:44.959Z,38.80
2022-12-05T03:05:21.170Z,43.73
2022-12-05T03:07:51.863Z,40.67
2022-12-05T03:10:22.433Z,40.73
2022-12-05T03:12:56.676Z,42.50
2022-12-05T03:15:29.444Z,39.97
2022-12-05T03:17:59.757Z,41.97
2022-12-05T03:20:35.227Z,37.00
2022-12-05T03:23:25.116Z,41.23
2022-12-05T03:26:00.019Z,34.70
2022-12-05T03:28:52.709Z,32.80
2022-12-05T03:31:26.306Z,33.47
2022-12-05T03:33:58.544Z,36.43
2022-12-05T03:36:35.019Z,36.20
2022-12-05T03:39:11.571Z,32.50
2022-12-05T03:42:00.464Z,35.83
2022-12-05T03:44:41.874Z,35.03
2022-12-05T03:47:38.601Z,36.40
2022-12-05T03:50:24.192Z,43.03
2022-12-05T03:53:19.958Z,36.47
2022-12-05T03:55:52.910Z,34.63
2022-12-05T03:58:30.711Z,37.57
2022-12-05T04:01:01.217Z,41.50
2022-12-05T04:03:43.385Z,38.27
2022-12-05T04:06:28.595Z,36.90
2022-12-05T04:09:15.421Z,43.33
2022-12-05T04:11:51.289Z,40.33
2022-12-05T04:14:37.677Z,37.47
2022-12-05T04:17:26.712Z,36.47
2022-12-05T04:20:59.479Z,36.80
2022-12-05T04:23:27.228Z,38.60
2022-12-05T04:26:23.639Z,35.80
2022-12-05T04:28:57.854Z,39.00
2022-12-05T04:31:35.380Z,34.97
2022-12-05T04:34:06.710Z,29.60
2022-12-05T04:36:43.719Z,40.07
2022-12-05T04:39:28.257Z,35.43
2022-12-05T04:42:00.823Z,39.57
2022-12-05T04:44:34.025Z,44.23
2022-12-05T04:47:03.968Z,36.27
2022-12-05T04:49:33.219Z,43.10
2022-12-05T04:52:04.572Z,40.37
2022-12-05T04:54:45.006Z,42.43
2022-12-05T04:57:31.922Z,36.80
2022-12-05T04:59:58.957Z,38.23
2022-12-05T05:02:34.957Z,36.10
2022-12-05T05:05:03.655Z,38.13
2022-12-05T05:07:30.603Z,38.00
2022-12-05T05:09:57.836Z,41.43
2022-12-05T05:12:24.906Z,38.40
2022-12-05T05:14:51.665Z,37.90
2022-12-05T05:17:18.482Z,37.90
2022-12-05T05:19:45.314Z,37.07
2022-12-05T05:22:12.256Z,40.50
2022-12-05T05:24:39.001Z,37.23
2022-12-05T05:27:05.883Z,40.40
2022-12-05T05:29:32.646Z,41.70
2022-12-05T05:31:59.532Z,38.90
2022-12-05T05:34:28.623Z,41.57
2022-12-05T05:36:55.471Z,38.27
2022-12-05T05:39:22.875Z,40.63
2022-12-05T05:41:49.771Z,42.07
2022-12-05T05:44:16.653Z,45.57
2022-12-05T05:46:43.575Z,36.97
2022-12-05T05:49:10.577Z,37.53
2022-12-05T05:51:37.384Z,38.97
2022-12-05T05:54:04.346Z,31.80
2022-12-05T05:56:31.154Z,38.97
2022-12-05T05:59:00.782Z,37.57
2022-12-05T06:01:27.996Z,36.97
2022-12-05T06:03:54.963Z,36.10
2022-12-05T06:06:22.940Z,40.20
2022-12-05T06:08:50.161Z,38.73
2022-12-05T06:11:25.470Z,36.47
2022-12-05T06:13:58.084Z,38.87
2022-12-05T06:16:25.357Z,36.57
2022-12-05T06:18:53.241Z,33.63
2022-12-05T06:21:21.027Z,31.53
2022-12-05T06:23:48.387Z,28.67
2022-12-05T06:26:18.710Z,31.10
2022-12-05T06:28:45.841Z,30.53
2022-12-05T06:31:18.435Z,34.20
2022-12-05T06:33:45.748Z,31.43
2022-12-05T06:36:16.437Z,36.07
2022-12-05T06:38:43.701Z,31.10
2022-12-05T06:41:15.235Z,32.83
2022-12-05T06:43:42.669Z,35.47
2022-12-05T06:46:12.553Z,33.23
2022-12-05T06:48:39.635Z,31.40
2022-12-05T06:51:10.364Z,31.07
2022-12-05T06:53:37.429Z,26.57
2022-12-05T06:56:07.582Z,27.53
2022-12-05T06:58:34.627Z,28.73
2022-12-05T07:01:20.313Z,27.70
2022-12-05T07:03:49.644Z,25.07
2022-12-05T07:06:16.923Z,30.40
2022-12-05T07:08:44.908Z,21.50
2022-12-05T07:11:11.819Z,28.57
2022-12-05T07:13:38.708Z,25.13
2022-12-05T07:16:09.657Z,25.63
2022-12-05T07:18:36.603Z,27.20
2022-12-05T07:21:12.073Z,25.63
2022-12-05T07:23:40.518Z,23.27
2022-12-05T07:26:08.887Z,26.47
2022-12-05T07:28:36.047Z,24.70
2022-12-05T07:31:08.830Z,23.47
2022-12-05T07:33:36.340Z,38.77
2022-12-05T07:36:08.434Z,32.80
2022-12-05T07:38:35.724Z,24.60
2022-12-05T07:41:13.503Z,26.97
2022-12-05T07:43:41.839Z,24.70
2022-12-05T07:46:11.432Z,25.30
2022-12-05T07:48:39.535Z,24.13
2022-12-05T07:51:08.236Z,25.67
2022-12-05T07:53:35.716Z,25.27
2022-12-05T07:56:04.459Z,25.83
2022-12-05T07:58:32.489Z,22.17
2022-12-05T08:01:08.003Z,26.53
2022-12-05T08:03:37.457Z,25.80
2022-12-05T08:06:06.424Z,20.67
2022-12-05T08:08:33.665Z,21.73
2022-12-05T08:11:12.953Z,26.27
2022-12-05T08:13:40.604Z,29.43
2022-12-05T08:16:20.293Z,20.30
2022-12-05T08:18:47.385Z,24.27
2022-12-05T08:21:17.371Z,26.80
2022-12-05T08:23:45.379Z,25.47
2022-12-05T08:26:15.310Z,17.50
2022-12-05T08:28:43.060Z,19.47
2022-12-05T08:31:20.115Z,16.40
2022-12-05T08:33:46.945Z,19.47
2022-12-05T08:36:15.607Z,17.67
2022-12-05T08:38:43.403Z,22.33
2022-12-05T08:41:14.268Z,17.70
2022-12-05T08:43:41.285Z,20.20
2022-12-05T08:46:08.752Z,25.47
2022-12-05T08:48:36.311Z,20.93
2022-12-05T08:51:11.553Z,20.73
2022-12-05T08:53:44.054Z,20.20
2022-12-05T08:56:12.343Z,20.80
2022-12-05T08:58:40.165Z,20.90
2022-12-05T09:01:15.697Z,15.83
2022-12-05T09:03:47.575Z,18.20
2022-12-05T09:06:14.885Z,22.30
2022-12-05T09:08:42.835Z,18.83
2022-12-05T09:11:12.833Z,19.37
2022-12-05T09:13:40.045Z,18.03
2022-12-05T09:16:15.980Z,17.50
2022-12-05T09:18:43.743Z,16.53
2022-12-05T09:21:16.785Z,18.47
2022-12-05T09:23:44.580Z,16.90
2022-12-05T09:26:14.771Z,19.73
2022-12-05T09:28:42.641Z,16.37
2022-12-05T09:31:13.087Z,16.47
2022-12-05T09:33:40.793Z,22.47
2022-12-05T09:36:11.878Z,19.03
2022-12-05T09:38:38.922Z,18.83
2022-12-05T09:41:08.776Z,16.70
2022-12-05T09:43:48.097Z,18.80
2022-12-05T09:46:30.247Z,21.67
2022-12-05T09:49:00.167Z,20.97
2022-12-05T09:51:27.476Z,18.93
2022-12-05T09:53:54.950Z,17.73
2022-12-05T09:56:27.244Z,17.03
2022-12-05T09:58:56.414Z,17.50
2022-12-05T10:02:01.598Z,21.60
2022-12-05T10:04:43.392Z,19.03
2022-12-05T10:07:31.653Z,26.23
2022-12-05T10:10:20.250Z,24.33
2022-12-05T10:12:59.763Z,22.33
2022-12-05T10:15:45.541Z,44.30
2022-12-05T10:18:17.861Z,24.30
2022-12-05T10:21:05.916Z,25.13
2022-12-05T10:23:57.420Z,21.60
2022-12-05T10:26:38.049Z,24.90
2022-12-05T10:29:36.015Z,26.83
2022-12-05T10:32:20.027Z,24.47
2022-12-05T10:34:47.479Z,20.83
2022-12-05T10:37:19.627Z,23.90
2022-12-05T10:39:47.770Z,22.23
2022-12-05T10:42:30.172Z,24.20
2022-12-05T10:45:03.942Z,23.07
2022-12-05T10:47:32.263Z,20.80
2022-12-05T10:50:05.076Z,22.97
2022-12-05T10:52:32.641Z,23.97
2022-12-05T10:55:04.629Z,21.70
2022-12-05T10:57:31.442Z,25.63
2022-12-05T11:00:09.078Z,20.33
2022-12-05T11:02:38.160Z,16.77
2022-12-05T11:05:05.330Z,23.57
2022-12-05T11:07:33.932Z,18.40
2022-12-05T11:10:04.312Z,18.30
2022-12-05T11:12:34.224Z,16.47
2022-12-05T11:15:03.093Z,17.93
2022-12-05T11:17:35.627Z,14.93
2022-12-05T11:20:23.292Z,15.47
2022-12-05T11:22:51.156Z,17.63
2022-12-05T11:25:32.651Z,18.80
2022-12-05T11:28:20.767Z,21.77
2022-12-05T11:31:25.870Z,17.43
2022-12-05T11:34:09.488Z,20.93
2022-12-05T11:36:48.392Z,18.63
2022-12-05T11:39:15.307Z,25.03
2022-12-05T11:41:47.947Z,27.83
2022-12-05T11:44:26.493Z,22.93
2022-12-05T11:47:17.773Z,20.43
2022-12-05T11:50:16.771Z,26.37
2022-12-05T11:53:17.186Z,19.23
2022-12-05T11:56:15.539Z,21.40
2022-12-05T11:58:45.388Z,19.67
2022-12-05T12:01:23.509Z,20.47
2022-12-05T12:04:35.037Z,22.97
2022-12-05T12:07:04.633Z,19.57
2022-12-05T12:10:09.609Z,27.40
2022-12-05T12:12:43.102Z,18.03
2022-12-05T12:15:12.869Z,18.10
2022-12-05T12:18:13.927Z,17.67
2022-12-05T12:21:02.270Z,24.30
2022-12-05T12:23:58.448Z,15.97
2022-12-05T12:26:44.803Z,16.33
2022-12-05T12:29:39.065Z,15.37
2022-12-05T12:32:24.481Z,19.87
2022-12-05T12:35:28.242Z,25.93
2022-12-05T12:38:07.044Z,42.97
2022-12-05T12:40:56.407Z,35.07
2022-12-05T12:43:52.689Z,44.53
2022-12-05T12:46:43.734Z,32.00
2022-12-05T12:49:25.427Z,36.27
2022-12-05T12:52:08.661Z,26.40
2022-12-05T12:55:13.877Z,29.00
2022-12-05T12:57:46.693Z,30.43
2022-12-05T13:00:28.672Z,28.87
2022-12-05T13:03:13.251Z,31.77
2022-12-05T13:05:47.999Z,31.43
2022-12-05T13:08:21.153Z,29.20
2022-12-05T13:10:49.367Z,27.03
2022-12-05T13:13:38.623Z,31.87
2022-12-05T13:16:07.950Z,25.27
2022-12-05T13:18:35.941Z,20.40
2022-12-05T13:21:09.180Z,22.10
2022-12-05T13:23:46.855Z,21.60
2022-12-05T13:26:14.896Z,20.27
2022-12-05T13:28:50.084Z,20.97
2022-12-05T13:31:19.419Z,18.30
2022-12-05T13:33:49.785Z,26.10
2022-12-05T13:36:42.984Z,22.10
2022-12-05T13:39:39.327Z,23.27
2022-12-05T13:42:24.440Z,19.93
2022-12-05T13:44:58.868Z,20.43
2022-12-05T13:47:43.081Z,23.03
2022-12-05T13:50:16.514Z,19.83
2022-12-05T13:52:54.934Z,21.20
2022-12-05T13:55:36.864Z,18.13
2022-12-05T13:58:24.041Z,16.27
2022-12-05T14:00:52.255Z,13.40
2022-12-05T14:03:34.387Z,15.93
2022-12-05T14:06:01.789Z,16.73
2022-12-05T14:08:31.647Z,18.77
2022-12-05T14:10:58.517Z,14.23
2022-12-05T14:13:26.978Z,15.97
2022-12-05T14:15:55.259Z,18.67
2022-12-05T14:18:30.721Z,19.13
2022-12-05T14:21:38.983Z,17.83
2022-12-05T14:24:42.939Z,17.87
2022-12-05T14:27:27.146Z,17.17
2022-12-05T14:30:17.000Z,16.13
2022-12-05T14:32:44.268Z,14.40
2022-12-05T14:35:24.749Z,16.63
2022-12-05T14:38:06.768Z,16.93
2022-12-05T14:40:40.055Z,14.53
2022-12-05T14:43:20.673Z,17.17
2022-12-05T14:45:57.343Z,14.87
2022-12-05T14:48:33.148Z,18.30
2022-12-05T14:51:01.325Z,18.23
2022-12-05T14:53:50.548Z,14.30
2022-12-05T14:56:27.672Z,15.97
2022-12-05T14:58:59.984Z,15.27
2022-12-05T15:01:35.115Z,17.93
2022-12-05T15:04:17.748Z,16.93
2022-12-05T15:06:54.451Z,14.93
2022-12-05T15:09:49.549Z,14.03
2022-12-05T15:12:32.120Z,12.73
2022-12-05T15:15:13.966Z,14.03
2022-12-05T15:17:46.930Z,14.93
2022-12-05T15:20:22.360Z,22.23
2022-12-05T15:22:49.574Z,15.77
2022-12-05T15:25:27.902Z,20.47
2022-12-05T15:27:57.937Z,17.37
2022-12-05T15:30:25.071Z,16.07
2022-12-05T15:32:57.723Z,16.17
2022-12-05T15:35:28.876Z,17.77
2022-12-05T15:38:31.137Z,16.70
2022-12-05T15:40:58.074Z,18.37
2022-12-05T15:43:33.733Z,18.80
2022-12-05T15:46:25.455Z,21.30
2022-12-05T15:48:57.234Z,18.67
2022-12-05T15:51:31.956Z,24.33
2022-12-05T15:54:14.278Z,18.60
2022-12-05T15:56:50.549Z,21.03
2022-12-05T15:59:19.628Z,21.13
2022-12-05T16:01:52.636Z,20.10
2022-12-05T16:04:38.816Z,19.73
2022-12-05T16:07:11.597Z,21.20
2022-12-05T16:09:42.351Z,24.33
2022-12-05T16:12:24.707Z,17.73
2022-12-05T16:15:00.382Z,29.77
2022-12-05T16:17:30.706Z,28.97
2022-12-05T16:20:15.997Z,25.30
2022-12-05T16:22:49.055Z,24.03
2022-12-05T16:25:18.856Z,17.13
2022-12-05T16:28:08.251Z,19.67
2022-12-05T16:30:36.240Z,23.33
2022-12-05T16:33:16.679Z,23.77
2022-12-05T16:35:48.815Z,21.90
2022-12-05T16:38:19.751Z,19.77
2022-12-05T16:40:49.386Z,19.40
2022-12-05T16:43:18.380Z,20.67
2022-12-05T16:45:46.970Z,21.20
2022-12-05T16:48:27.906Z,18.87
2022-12-05T16:51:13.270Z,16.20
2022-12-05T16:53:42.435Z,16.63
2022-12-05T16:56:15.895Z,20.70
2022-12-05T16:58:43.106Z,20.63
2022-12-05T17:01:19.349Z,60.33
2022-12-05T17:03:46.553Z,33.13
2022-12-05T17:06:14.850Z,26.23
2022-12-05T17:08:42.383Z,22.53
2022-12-05T17:11:20.136Z,21.83
2022-12-05T17:13:48.595Z,20.63
2022-12-05T17:16:17.400Z,18.77
2022-12-05T17:18:45.402Z,17.93
2022-12-05T17:21:21.039Z,20.03
2022-12-05T17:23:48.601Z,17.47
2022-12-05T17:26:18.857Z,16.70
2022-12-05T17:28:46.075Z,17.70
2022-12-05T17:31:21.193Z,16.37
2022-12-05T17:33:49.654Z,15.53
2022-12-05T17:36:16.935Z,16.50
2022-12-05T17:38:44.621Z,17.40
2022-12-05T17:41:23.042Z,19.20
2022-12-05T17:43:51.613Z,22.73
2022-12-05T17:46:21.252Z,21.53
2022-12-05T17:48:49.767Z,17.47
2022-12-05T17:51:17.300Z,16.47
2022-12-05T17:53:44.702Z,20.50
2022-12-05T17:56:12.620Z,17.47
2022-12-05T17:58:40.274Z,16.53
2022-12-05T18:01:07.407Z,19.37
2022-12-05T18:03:34.353Z,19.53
2022-12-05T18:06:03.782Z,18.77
2022-12-05T18:08:30.595Z,17.53
2022-12-05T18:10:58.308Z,18.43
2022-12-05T18:13:25.208Z,20.27
2022-12-05T18:15:56.936Z,17.13
2022-12-05T18:18:24.208Z,20.80
2022-12-05T18:20:51.128Z,23.13
2022-12-05T18:23:18.279Z,22.10
2022-12-05T18:25:47.010Z,17.93
2022-12-05T18:28:17.915Z,23.63
2022-12-05T18:30:46.648Z,21.03
2022-12-05T18:33:13.595Z,18.43
2022-12-05T18:35:43.315Z,29.50
2022-12-05T18:38:11.828Z,23.77
2022-12-05T18:40:38.872Z,22.60
2022-12-05T18:43:05.676Z,19.67
2022-12-05T18:45:32.655Z,23.07
2022-12-05T18:48:09.696Z,21.27
2022-12-05T18:50:46.815Z,18.50
2022-12-05T18:53:13.720Z,21.40
2022-12-05T18:58:28.267Z,21.87
2022-12-05T19:00:55.914Z,18.57
2022-12-05T19:03:22.796Z,20.63
2022-12-05T19:05:49.636Z,19.53
2022-12-05T19:08:16.515Z,18.93
2022-12-05T19:10:43.365Z,23.37
2022-12-05T19:13:11.001Z,17.63
2022-12-05T19:15:37.858Z,18.87
2022-12-05T19:18:04.887Z,18.87
2022-12-05T19:20:31.715Z,21.20
2022-12-05T19:23:01.049Z,16.80
2022-12-05T19:25:29.983Z,18.50
2022-12-05T19:27:56.811Z,19.93
2022-12-05T19:30:24.452Z,20.23
2022-12-05T19:32:51.258Z,19.23
2022-12-05T19:35:18.264Z,21.30
2022-12-05T19:37:45.127Z,18.17
2022-12-05T19:40:12.365Z,23.40
2022-12-05T19:42:39.194Z,25.73
2022-12-05T19:45:13.479Z,25.43
2022-12-05T19:47:43.286Z,21.50
2022-12-05T19:50:10.327Z,18.73
2022-12-05T19:52:37.260Z,25.00
2022-12-05T19:55:04.159Z,25.30
2022-12-05T19:57:31.546Z,28.23
2022-12-05T19:59:58.992Z,27.50
2022-12-05T20:02:28.523Z,31.77
2022-12-05T20:04:55.348Z,30.27
2022-12-05T20:07:22.397Z,27.73
2022-12-05T20:09:49.231Z,25.03
2022-12-05T20:12:16.080Z,31.70
2022-12-05T20:14:42.954Z,27.20
2022-12-05T20:17:10.077Z,31.47
2022-12-05T20:19:37.308Z,29.40
2022-12-05T20:22:04.217Z,31.30
2022-12-05T20:24:31.340Z,47.97
2022-12-05T20:26:58.176Z,32.30
2022-12-05T20:29:25.217Z,31.97
2022-12-05T20:31:56.602Z,31.20
2022-12-05T20:34:23.623Z,34.53
2022-12-05T20:36:50.552Z,26.53
2022-12-05T20:39:18.730Z,29.00
2022-12-05T20:41:46.132Z,29.73
2022-12-05T20:44:15.837Z,30.20
2022-12-05T20:46:42.989Z,34.27
2022-12-05T20:49:11.976Z,31.93
2022-12-05T20:51:42.373Z,31.40
2022-12-05T20:54:09.821Z,29.37
2022-12-05T20:56:37.043Z,33.30
2022-12-05T20:59:06.098Z,33.27
2022-12-05T21:01:36.031Z,31.13
2022-12-05T21:04:05.937Z,27.33
2022-12-05T21:06:35.377Z,43.47
2022-12-05T21:09:04.692Z,37.03
2022-12-05T21:11:31.772Z,30.13
2022-12-05T21:14:00.488Z,34.00
2022-12-05T21:16:28.287Z,31.00
2022-12-05T21:18:56.289Z,27.97
2022-12-05T21:21:25.029Z,25.93
2022-12-05T21:23:57.779Z,31.07
2022-12-05T21:26:26.590Z,33.23
2022-12-05T21:28:54.060Z,25.73
2022-12-05T21:31:29.317Z,34.20
2022-12-05T21:33:58.799Z,34.20
2022-12-05T21:36:27.768Z,24.60
2022-12-05T21:38:56.449Z,25.77
2022-12-05T21:41:25.029Z,24.37
2022-12-05T21:43:54.882Z,23.50
2022-12-05T21:46:26.288Z,22.93
2022-12-05T21:48:53.854Z,33.77
2022-12-05T21:51:21.687Z,54.60
2022-12-05T21:53:48.860Z,114.03
2022-12-05T21:56:18.395Z,514.90
2022-12-05T21:58:46.606Z,388.13
2022-12-05T22:01:18.509Z,445.83
2022-12-05T22:03:46.352Z,442.03
2022-12-05T22:06:16.941Z,361.73
2022-12-05T22:08:43.782Z,256.10
2022-12-05T22:11:14.170Z,149.80
2022-12-05T22:13:42.075Z,122.27
2022-12-05T22:16:09.320Z,68.27
2022-12-05T22:18:36.805Z,66.90
2022-12-05T22:21:10.280Z,47.33
2022-12-05T22:23:37.425Z,41.47
2022-12-05T22:26:13.955Z,53.47
2022-12-05T22:28:40.985Z,47.83
2022-12-05T22:31:10.383Z,42.03
2022-12-05T22:33:37.931Z,56.17
2022-12-05T22:36:07.804Z,50.07
2022-12-05T22:38:36.916Z,61.87
2022-12-05T22:41:18.263Z,64.80
2022-12-05T22:43:47.212Z,60.03
2022-12-05T22:46:18.011Z,63.07
2022-12-05T22:48:45.627Z,73.07
2022-12-05T22:51:12.767Z,56.23
2022-12-05T22:53:40.443Z,69.97
2022-12-05T22:56:12.455Z,55.40
2022-12-05T22:58:40.077Z,45.50
2022-12-05T23:01:18.212Z,56.77
2022-12-05T23:03:46.867Z,64.47
2022-12-05T23:06:15.589Z,68.60
2022-12-05T23:08:43.834Z,73.73
2022-12-05T23:11:11.811Z,67.13
2022-12-05T23:13:39.740Z,57.13
2022-12-05T23:16:15.027Z,70.83
2022-12-05T23:18:48.436Z,70.53
2022-12-05T23:21:24.202Z,76.77
2022-12-05T23:23:53.584Z,120.53
2022-12-05T23:26:23.436Z,115.80
2022-12-05T23:28:50.674Z,96.90
2022-12-05T23:31:18.430Z,64.07
2022-12-05T23:33:48.548Z,85.63
2022-12-05T23:36:18.647Z,88.17
2022-12-05T23:38:45.555Z,72.37
2022-12-05T23:41:21.466Z,82.80
2022-12-05T23:43:50.336Z,103.10
2022-12-05T23:46:20.106Z,197.33
2022-12-05T23:48:47.503Z,189.77
2022-12-05T23:51:26.260Z,162.53
2022-12-05T23:53:58.907Z,153.53
2022-12-05T23:56:31.724Z,121.63
2022-12-05T23:58:59.211Z,135.10
